Live Webcam Brienzersee more information Live Webcam Brienzersee


Thunder radar more information blitzortung!


Rain radar more information rain snow radar


Besuchen Sie unsere anderen Wetter Stationen:

Template documentation
and downloads

And another site



METAR-Meldungen aus der Umgebung


Warning: A non-numeric value encountered in /home/webcambr/www/wetterbrienz/weather28x/metar/metarDisplay.php on line 166

Warning: A non-numeric value encountered in /home/webcambr/www/wetterbrienz/weather28x/metar/metarDisplay.php on line 166

Warning: A non-numeric value encountered in /home/webcambr/www/wetterbrienz/weather28x/metar/metarDisplay.php on line 166

Warning: A non-numeric value encountered in /home/webcambr/www/wetterbrienz/weather28x/metar/metarDisplay.php on line 166
   
EBAW - Antwerp
Aktualisierung: 19-03-2019 07:20
Klar  
Klar  
   Wind: variiert 3.7 km/h
Wind: variiert 3.7 km/h
Temperatur: -1°C
Taupunkt: -1°C
Luftfeuchte: 100%
Luftdruck: 1027 hPa
Sichtbarkeit: More than 10 km
Bewölkung: Klar
EBAW 190620Z VRB02KT CAVOK M01/M01 Q1027 NOSIG
EBLG - Liège
Aktualisierung: 19-03-2019 07:20
Teilweise bewölkt  
Teilweise bewölkt  
   Wind: SSO 9.3 km/h
Wind: SSO 9.3 km/h
Temperatur: 0°C
Gefühlt: -3°C
Taupunkt: -2°C
Luftfeuchte: 87%
Luftdruck: 1027 hPa
Bewölkt: Teilweise bewölkt
Sichtbarkeit: 8 km
Bewölkung: leicht bewölkt 2900 ft,
Teilweise bewölkt 4000 ft
EBLG 190620Z 15005KT 130V210 8000 FEW029 SCT040 M00/M02 Q1027 NOSIG
EBCV - Mons/Bergen
Aktualisierung: 19-03-2019 07:21
Klar  
Klar  
   Wind: Süden 5.6 km/h
Wind: Süden 5.6 km/h
Temperatur: 0°C
Gefühlt: -2°C
Taupunkt: -1°C
Luftfeuchte: 93%
Luftdruck: 1027 hPa
Bewölkt: Klar
Sichtbarkeit: 7 km
Bewölkung: Klar
EBCV 190621Z AUTO 18003KT 7000 NCD 00/M01 Q1027 WHT
EHBK - Maastricht
Aktualisierung: 19-03-2019 07:25
Stark bewölkt  
Stark bewölkt  
   Wind: SSW 9.3 km/h
Wind: SSW 9.3 km/h
Temperatur: 0°C
Gefühlt: -3°C
Taupunkt: -1°C
Luftfeuchte: 93%
Luftdruck: 1027 hPa
Bewölkt: Stark bewölkt
Sichtbarkeit: More than 10 km
Bewölkung: Stark bewölkt 3800 ft
EHBK 190625Z AUTO 20005KT 160V220 9999 BKN038 00/M01 Q1027 NOSIG
ELLX - Luxemburg
Aktualisierung: 19-03-2019 07:20
Klar  
Klar  
   Wind: Norden 9.3 km/h
Wind: Norden 9.3 km/h
Temperatur: 0°C
Gefühlt: -3°C
Taupunkt: -2°C
Luftfeuchte: 87%
Luftdruck: 1026 hPa
Sichtbarkeit: More than 10 km
Bewölkung: Klar
ELLX 190620Z 01005KT 320V040 CAVOK M00/M02 Q1026 NOSIG
EBOS - Oostende
Aktualisierung: 19-03-2019 07:20
Shallow Fog, Teilweise bewölkt  
Shallow Fog, Teilweise bewölkt  
   Wind: SSW 7.4 km/h
Wind: SSW 7.4 km/h
Temperatur: 1°C
Gefühlt: -1°C
Taupunkt: 0°C
Luftfeuchte: 93%
Luftdruck: 1027 hPa
Bewölkt: Teilweise bewölkt
Sichtbarkeit: 2 km
Bewölkung: Teilweise bewölkt
EBOS 190620Z 20004KT 1600 MIFG NSC 01/M00 Q1027 NOSIG

Script entwickelt von  Saratoga-weather.org Angepasst für das Template von  Weerstation Leuven